Impacts TAF Board INFO
FOR SITUATIONAL AWARENESS. NOT TO BE USED FOR FLIGHT PLANNING PURPOSES.
IDs:

KCVG - Cincinnati Intl, KY, US

Issued at 2342 UTC 24 Nov 2017
Updated at 0013 UTC 25 Nov 2017
Potential Impact None Slight Moderate High
Time2352Z 25/01Z 25/02Z 25/03Z 25/04Z 25/05Z 25/06Z 25/07Z 25/08Z 25/09Z 25/10Z 25/11Z 25/12Z 25/13Z>>
Type OBS PRVL PRVL PRVL PRVL PRVL PRVL PRVL PRVL PRVL PRVL PRVL PRVL PRVL
VIS 10 >6 >6 >6 >6 >6 >6 >6 >6 >6 >6 >6 >6 >6
CIG -- -- -- -- -- -- -- -- -- 100 100 100 100 25
Cover SCT FEW FEW SCT SCT SCT SCT SCT SCT BKN BKN BKN BKN BKN
FltCat VFR VFR VFR VFR VFR VFR VFR VFR VFR VFR VFR VFR VFR MVFR
WX -- -- -- -- -- -- -- -- -- -- -- -- -- --
WDir 190 190 190 200 200 200 200 200 200 220 220 220 220 250
WSpd 9 7 7 9 9 9 9 9 9 10 10 10 10 6
WGst -- -- -- -- -- -- -- -- -- -- -- -- -- --

Raw TAF
KCVG 242342Z 2500/2606 19007KT P6SM FEW250
  FM250300 20009KT P6SM SCT250 WS020/22040KT
  FM250900 22010KT P6SM BKN100
  FM251300 25006KT P6SM BKN025
  FM251900 30008KT P6SM SCT030


Raw METAR
KCVG 242352Z 19009KT 10SM SCT210 08/M01 A2980 RMK AO2 SLP092 T00831011 10133 20078 56006
KCVG 242252Z 20008KT 10SM FEW220 SCT250 09/M02 A2980 RMK AO2 SLP093 T00891017
KCVG 242152Z 20010KT 10SM SCT210 12/M02 A2981 RMK AO2 SLP094 T01171022

METAR Board
Radar Display
Forecast Discussion

FOR SITUATIONAL AWARENESS. NOT TO BE USED FOR FLIGHT PLANNING PURPOSES.